createdAt,value
2019-03-09T00:00:32.594Z,0
2019-03-09T00:01:32.358Z,0
2019-03-09T00:02:32.326Z,0
2019-03-09T00:03:32.314Z,0
2019-03-09T00:04:32.316Z,0
2019-03-09T00:05:32.326Z,0
2019-03-09T00:06:32.284Z,0
2019-03-09T00:07:32.252Z,0
2019-03-09T00:08:32.289Z,0
2019-03-09T00:09:32.444Z,0
2019-03-09T00:10:32.156Z,0
2019-03-09T00:11:32.138Z,0
2019-03-09T00:12:32.116Z,0
2019-03-09T00:13:32.135Z,0
2019-03-09T00:14:32.073Z,0
2019-03-09T00:15:32.060Z,0
2019-03-09T00:16:32.040Z,0
2019-03-09T00:17:32.523Z,0
2019-03-09T00:18:31.994Z,0
2019-03-09T00:19:31.973Z,0
2019-03-09T00:20:31.937Z,0
2019-03-09T00:21:31.935Z,0
2019-03-09T00:22:31.906Z,0
2019-03-09T00:23:31.897Z,0
2019-03-09T00:24:31.852Z,0
2019-03-09T00:25:33.174Z,0
2019-03-09T00:26:32.079Z,0
2019-03-09T00:27:37.123Z,0
2019-03-09T00:28:31.788Z,0
2019-03-09T00:29:31.784Z,0
2019-03-09T00:30:31.790Z,0
2019-03-09T00:31:32.631Z,0
2019-03-09T00:32:31.726Z,0
2019-03-09T00:33:31.676Z,0
2019-03-09T00:34:32.271Z,0
2019-03-09T00:35:31.631Z,0
2019-03-09T00:36:32.987Z,0
2019-03-09T00:37:31.578Z,0
2019-03-09T00:38:31.543Z,0
2019-03-09T00:39:31.554Z,0
2019-03-09T00:40:31.549Z,0
2019-03-09T00:41:31.517Z,0
2019-03-09T00:42:31.756Z,0
2019-03-09T00:43:31.466Z,0
2019-03-09T00:44:31.452Z,0
2019-03-09T00:45:31.438Z,0
2019-03-09T00:46:31.391Z,0
2019-03-09T00:47:31.372Z,0
2019-03-09T00:48:31.362Z,0
2019-03-09T00:49:31.346Z,0
2019-03-09T00:50:31.321Z,0
2019-03-09T00:51:31.842Z,0
2019-03-09T00:52:31.253Z,0
2019-03-09T00:53:31.013Z,0
2019-03-09T00:54:31.281Z,0
2019-03-09T00:55:31.220Z,0
2019-03-09T00:56:31.179Z,0
2019-03-09T00:57:31.142Z,0
2019-03-09T00:58:31.133Z,0
2019-03-09T00:59:31.129Z,0
2019-03-09T01:00:31.082Z,0
2019-03-09T01:01:31.078Z,0
2019-03-09T01:02:31.045Z,0
2019-03-09T01:03:31.025Z,0
2019-03-09T01:04:31.003Z,0
2019-03-09T01:05:30.969Z,0
2019-03-09T01:06:31.004Z,0
2019-03-09T01:07:30.935Z,0
2019-03-09T01:08:30.689Z,0
2019-03-09T01:09:30.903Z,0
2019-03-09T01:10:30.858Z,0
2019-03-09T01:11:30.850Z,0
2019-03-09T01:12:30.825Z,0
2019-03-09T01:13:30.817Z,0
2019-03-09T01:14:30.772Z,0
2019-03-09T01:15:30.760Z,0
2019-03-09T01:16:30.734Z,0
2019-03-09T01:17:30.730Z,0
2019-03-09T01:18:30.687Z,0
2019-03-09T01:19:30.672Z,0
2019-03-09T01:20:30.651Z,0
2019-03-09T01:21:30.642Z,0
2019-03-09T01:22:30.614Z,0
2019-03-09T01:23:30.589Z,0
2019-03-09T01:24:30.561Z,0
2019-03-09T01:25:30.545Z,0
2019-03-09T01:26:30.554Z,0
2019-03-09T01:27:30.501Z,0
2019-03-09T01:28:30.482Z,0
2019-03-09T01:29:30.447Z,0
2019-03-09T01:30:30.440Z,0
2019-03-09T01:31:30.431Z,0
2019-03-09T01:32:30.387Z,0
2019-03-09T01:33:30.398Z,0
2019-03-09T01:34:30.346Z,0
2019-03-09T01:35:30.330Z,0
2019-03-09T01:36:30.328Z,0
2019-03-09T01:37:30.298Z,0
2019-03-09T01:38:30.270Z,0
2019-03-09T01:39:30.251Z,0
2019-03-09T01:40:30.220Z,0
2019-03-09T01:41:30.204Z,0
2019-03-09T01:42:30.236Z,0
2019-03-09T01:43:30.156Z,0
2019-03-09T01:44:30.141Z,0
2019-03-09T01:45:30.111Z,0
2019-03-09T01:46:30.112Z,0
2019-03-09T01:47:30.075Z,0
2019-03-09T01:48:30.080Z,0
2019-03-09T01:49:30.063Z,0
2019-03-09T01:50:30.021Z,0
2019-03-09T01:51:29.991Z,0
2019-03-09T01:52:29.982Z,0
2019-03-09T01:53:38.767Z,0
2019-03-09T01:54:29.930Z,0
2019-03-09T01:55:29.901Z,0
2019-03-09T01:56:29.902Z,0
2019-03-09T01:57:29.866Z,0
2019-03-09T01:58:29.833Z,0
2019-03-09T01:59:29.852Z,0
2019-03-09T02:00:29.814Z,0
2019-03-09T02:01:29.809Z,0
2019-03-09T02:02:29.744Z,0
2019-03-09T02:03:29.741Z,0
2019-03-09T02:04:29.702Z,0
2019-03-09T02:05:29.704Z,0
2019-03-09T02:06:29.658Z,0
2019-03-09T02:07:29.653Z,0
2019-03-09T02:08:29.619Z,0
2019-03-09T02:09:29.615Z,0
2019-03-09T02:10:29.580Z,0
2019-03-09T02:11:29.566Z,0
2019-03-09T02:12:29.539Z,0
2019-03-09T02:13:29.514Z,0
2019-03-09T02:14:29.502Z,0
2019-03-09T02:15:29.468Z,0
2019-03-09T02:16:29.450Z,0
2019-03-09T02:17:29.419Z,0
2019-03-09T02:18:29.416Z,0
2019-03-09T02:19:29.146Z,0
2019-03-09T02:20:29.375Z,0
2019-03-09T02:21:29.335Z,0
2019-03-09T02:22:29.092Z,0
2019-03-09T02:23:29.307Z,0
2019-03-09T02:24:29.291Z,0
2019-03-09T02:25:29.249Z,0
2019-03-09T02:26:29.235Z,0
2019-03-09T02:27:29.222Z,0
2019-03-09T02:28:29.250Z,0
2019-03-09T02:29:29.178Z,0
2019-03-09T02:30:29.166Z,0
2019-03-09T02:31:29.136Z,0
2019-03-09T02:32:29.113Z,0
2019-03-09T02:33:29.112Z,0
2019-03-09T02:34:29.067Z,0
2019-03-09T02:35:28.843Z,0
2019-03-09T02:36:29.030Z,0
2019-03-09T02:37:29.074Z,0
2019-03-09T02:38:29.015Z,0
2019-03-09T02:39:28.969Z,0
2019-03-09T02:40:30.284Z,0
2019-03-09T02:41:28.931Z,0
2019-03-09T02:42:28.921Z,0
2019-03-09T02:43:28.894Z,0
2019-03-09T02:44:28.895Z,0
2019-03-09T02:45:28.859Z,0
2019-03-09T02:46:28.831Z,0
2019-03-09T02:47:28.808Z,0
2019-03-09T02:48:28.783Z,0
2019-03-09T02:49:28.757Z,0
2019-03-09T02:50:28.757Z,0
2019-03-09T02:51:28.733Z,0
2019-03-09T02:52:28.723Z,0
2019-03-09T02:53:28.660Z,0
2019-03-09T02:54:28.657Z,0
2019-03-09T02:55:28.639Z,0
2019-03-09T02:56:28.610Z,0
2019-03-09T02:57:28.328Z,0
2019-03-09T02:58:28.579Z,0
2019-03-09T02:59:28.541Z,0
2019-03-09T03:00:28.528Z,0
2019-03-09T03:01:28.493Z,0
2019-03-09T03:02:28.489Z,0
2019-03-09T03:03:28.451Z,0
2019-03-09T03:04:28.428Z,0
2019-03-09T03:05:28.431Z,0
2019-03-09T03:06:28.383Z,0
2019-03-09T03:07:28.374Z,0
2019-03-09T03:08:28.337Z,0
2019-03-09T03:09:28.360Z,0
2019-03-09T03:10:28.494Z,0
2019-03-09T03:11:28.331Z,0
2019-03-09T03:12:28.353Z,0
2019-03-09T03:13:28.246Z,0
2019-03-09T03:14:28.228Z,0
2019-03-09T03:15:28.206Z,0
2019-03-09T03:16:28.162Z,0
2019-03-09T03:17:28.152Z,0
2019-03-09T03:18:28.151Z,0
2019-03-09T03:19:28.109Z,0
2019-03-09T03:20:28.096Z,0
2019-03-09T03:21:28.056Z,0
2019-03-09T03:22:28.054Z,0
2019-03-09T03:23:28.038Z,0
2019-03-09T03:24:28.009Z,0
2019-03-09T03:25:27.998Z,0
2019-03-09T03:26:27.962Z,0
2019-03-09T03:27:27.931Z,0
2019-03-09T03:28:27.923Z,0
2019-03-09T03:29:27.982Z,0
2019-03-09T03:30:27.953Z,0
2019-03-09T03:31:27.906Z,0
2019-03-09T03:32:27.851Z,0
2019-03-09T03:33:27.924Z,0
2019-03-09T03:34:27.943Z,0
2019-03-09T03:35:27.767Z,0
2019-03-09T03:36:27.745Z,0
2019-03-09T03:37:27.733Z,0
2019-03-09T03:38:27.700Z,0
2019-03-09T03:39:27.492Z,0
2019-03-09T03:40:27.645Z,0
2019-03-09T03:41:27.643Z,0
2019-03-09T03:42:27.620Z,0
2019-03-09T03:43:27.701Z,0
2019-03-09T03:44:27.567Z,0
2019-03-09T03:45:27.594Z,0
2019-03-09T03:46:27.543Z,0
2019-03-09T03:47:27.498Z,0
2019-03-09T03:48:27.482Z,0
2019-03-09T03:49:27.486Z,0
2019-03-09T03:50:27.471Z,0
2019-03-09T03:51:27.411Z,0
2019-03-09T03:52:27.451Z,0
2019-03-09T03:53:27.370Z,0
2019-03-09T03:54:27.369Z,0
2019-03-09T03:55:27.336Z,0
2019-03-09T03:56:27.341Z,0
2019-03-09T03:57:27.288Z,0
2019-03-09T03:58:27.278Z,0
2019-03-09T03:59:27.274Z,0
2019-03-09T04:00:27.250Z,0
2019-03-09T04:01:27.219Z,0
2019-03-09T04:02:27.188Z,0
2019-03-09T04:03:27.181Z,0
2019-03-09T04:04:27.157Z,0
2019-03-09T04:05:27.185Z,0
2019-03-09T04:06:27.125Z,0
2019-03-09T04:07:27.079Z,0
2019-03-09T04:08:27.080Z,0
2019-03-09T04:09:27.061Z,0
2019-03-09T04:10:27.039Z,0
2019-03-09T04:11:26.991Z,0
2019-03-09T04:12:26.970Z,0
2019-03-09T04:13:26.955Z,0
2019-03-09T04:14:26.921Z,0
2019-03-09T04:15:26.923Z,0
2019-03-09T04:16:26.882Z,0
2019-03-09T04:17:26.869Z,0
2019-03-09T04:18:26.865Z,0
2019-03-09T04:19:26.642Z,0
2019-03-09T04:20:26.847Z,0
2019-03-09T04:21:26.773Z,0
2019-03-09T04:22:26.519Z,0
2019-03-09T04:23:26.732Z,0
2019-03-09T04:24:26.723Z,0
2019-03-09T04:25:26.677Z,0
2019-03-09T04:26:26.672Z,0
2019-03-09T04:27:26.641Z,0
2019-03-09T04:28:26.669Z,0
2019-03-09T04:29:26.622Z,0
2019-03-09T04:30:26.591Z,0
2019-03-09T04:31:26.564Z,0
2019-03-09T04:32:26.540Z,0
2019-03-09T04:33:26.511Z,0
2019-03-09T04:34:26.536Z,0
2019-03-09T04:35:26.466Z,0
2019-03-09T04:36:26.452Z,0
2019-03-09T04:37:25.954Z,0
2019-03-09T04:38:26.391Z,0
2019-03-09T04:39:26.395Z,0
2019-03-09T04:40:26.395Z,0
2019-03-09T04:41:26.368Z,0
2019-03-09T04:42:26.305Z,0
2019-03-09T04:43:26.293Z,0
2019-03-09T04:44:27.203Z,0
2019-03-09T04:45:26.270Z,0
2019-03-09T04:46:26.222Z,0
2019-03-09T04:47:26.205Z,0
2019-03-09T04:48:26.184Z,0
2019-03-09T04:49:26.184Z,0
2019-03-09T04:50:26.141Z,0
2019-03-09T04:51:26.118Z,0
2019-03-09T04:52:25.853Z,0
2019-03-09T04:53:26.126Z,0
2019-03-09T04:54:25.823Z,0
2019-03-09T04:55:26.032Z,0
2019-03-09T04:56:26.020Z,0
2019-03-09T04:57:26.011Z,0
2019-03-09T04:58:25.960Z,0
2019-03-09T04:59:25.951Z,0
2019-03-09T05:00:25.923Z,0
2019-03-09T05:01:25.922Z,0
2019-03-09T05:02:25.876Z,0
2019-03-09T05:03:25.866Z,0
2019-03-09T05:04:25.843Z,0
2019-03-09T05:05:25.829Z,0
2019-03-09T05:06:25.799Z,0
2019-03-09T05:07:25.778Z,0
2019-03-09T05:08:25.755Z,0
2019-03-09T05:09:25.740Z,0
2019-03-09T05:10:25.721Z,0
2019-03-09T05:11:25.691Z,0
2019-03-09T05:12:25.695Z,0
2019-03-09T05:13:25.635Z,0
2019-03-09T05:14:25.658Z,0
2019-03-09T05:15:25.611Z,0
2019-03-09T05:16:25.593Z,0
2019-03-09T05:17:25.548Z,0
2019-03-09T05:18:25.553Z,0
2019-03-09T05:19:25.528Z,0
2019-03-09T05:20:25.508Z,0
2019-03-09T05:21:25.467Z,0
2019-03-09T05:22:25.457Z,0
2019-03-09T05:23:25.494Z,0
2019-03-09T05:24:25.419Z,0
2019-03-09T05:25:25.390Z,0
2019-03-09T05:26:25.128Z,0
2019-03-09T05:27:25.129Z,0
2019-03-09T05:28:25.333Z,0
2019-03-09T05:29:25.315Z,0
2019-03-09T05:30:25.277Z,0
2019-03-09T05:31:25.275Z,0
2019-03-09T05:32:25.234Z,0
2019-03-09T05:33:25.238Z,0
2019-03-09T05:34:25.241Z,0
2019-03-09T05:35:25.191Z,0
2019-03-09T05:36:25.160Z,0
2019-03-09T05:37:25.147Z,0
2019-03-09T05:38:25.111Z,0
2019-03-09T05:39:25.089Z,0
2019-03-09T05:40:25.062Z,0
2019-03-09T05:41:25.049Z,0
2019-03-09T05:42:25.035Z,0
2019-03-09T05:43:25.036Z,0
2019-03-09T05:44:24.982Z,0
2019-03-09T05:45:24.951Z,0
2019-03-09T05:46:25.222Z,0
2019-03-09T05:47:24.920Z,0
2019-03-09T05:48:24.905Z,0
2019-03-09T05:49:24.864Z,0
2019-03-09T05:50:24.955Z,0
2019-03-09T05:51:24.836Z,0
2019-03-09T05:52:24.835Z,0
2019-03-09T05:53:24.786Z,0
2019-03-09T05:54:24.808Z,4
2019-03-09T05:55:24.752Z,4
2019-03-09T05:56:24.744Z,4
2019-03-09T05:57:24.696Z,8
2019-03-09T05:58:24.674Z,8
2019-03-09T05:59:24.665Z,8
2019-03-09T06:00:24.640Z,12
2019-03-09T06:01:24.628Z,12
2019-03-09T06:02:24.604Z,12
2019-03-09T06:03:24.574Z,12
2019-03-09T06:04:24.551Z,12
2019-03-09T06:05:24.552Z,12
2019-03-09T06:06:24.508Z,12
2019-03-09T06:07:24.510Z,16
2019-03-09T06:08:24.478Z,20
2019-03-09T06:09:24.464Z,20
2019-03-09T06:10:24.427Z,20
2019-03-09T06:11:24.407Z,24
2019-03-09T06:12:24.376Z,28
2019-03-09T06:13:24.361Z,24
2019-03-09T06:14:24.361Z,24
2019-03-09T06:15:24.315Z,28
2019-03-09T06:16:24.297Z,28
2019-03-09T06:17:24.263Z,36
2019-03-09T06:18:24.260Z,36
2019-03-09T06:19:24.241Z,40
2019-03-09T06:20:24.943Z,44
2019-03-09T06:21:23.933Z,52
2019-03-09T06:22:24.177Z,52
2019-03-09T06:23:24.147Z,56
2019-03-09T06:24:24.134Z,60
2019-03-09T06:25:24.103Z,64
2019-03-09T06:26:23.848Z,64
2019-03-09T06:27:24.068Z,72
2019-03-09T06:28:24.041Z,76
2019-03-09T06:29:24.021Z,84
2019-03-09T06:30:23.984Z,92
2019-03-09T06:31:24.044Z,104
2019-03-09T06:32:23.956Z,112
2019-03-09T06:33:23.967Z,96
2019-03-09T06:34:23.903Z,104
2019-03-09T06:35:23.887Z,104
2019-03-09T06:36:23.862Z,100
2019-03-09T06:37:23.853Z,80
2019-03-09T06:38:23.842Z,84
2019-03-09T06:39:23.584Z,84
2019-03-09T06:40:23.817Z,140
2019-03-09T06:41:23.759Z,104
2019-03-09T06:42:23.739Z,100
2019-03-09T06:43:23.482Z,84
2019-03-09T06:44:23.703Z,88
2019-03-09T06:45:23.680Z,104
2019-03-09T06:46:23.651Z,88
2019-03-09T06:47:23.658Z,140
2019-03-09T06:48:23.618Z,160
2019-03-09T06:49:23.611Z,176
2019-03-09T06:50:23.338Z,156
2019-03-09T06:51:23.549Z,164
2019-03-09T06:52:23.543Z,160
2019-03-09T06:53:23.543Z,156
2019-03-09T06:54:23.523Z,148
2019-03-09T06:55:23.457Z,132
2019-03-09T06:56:23.427Z,128
2019-03-09T06:57:23.432Z,128
2019-03-09T06:58:23.397Z,104
2019-03-09T06:59:23.375Z,92
2019-03-09T07:00:23.116Z,104
2019-03-09T07:01:23.359Z,120
2019-03-09T07:02:23.319Z,112
2019-03-09T07:03:23.299Z,112
2019-03-09T07:04:23.266Z,108
2019-03-09T07:05:23.232Z,100
2019-03-09T07:06:23.238Z,92
2019-03-09T07:07:23.203Z,88
2019-03-09T07:08:23.192Z,88
2019-03-09T07:09:23.147Z,80
2019-03-09T07:10:23.152Z,80
2019-03-09T07:11:23.124Z,84
2019-03-09T07:12:23.131Z,80
2019-03-09T07:13:22.890Z,84
2019-03-09T07:14:23.052Z,84
2019-03-09T07:15:23.041Z,84
2019-03-09T07:16:23.038Z,88
2019-03-09T07:17:23.015Z,88
2019-03-09T07:18:22.975Z,92
2019-03-09T07:19:22.950Z,84
2019-03-09T07:20:22.934Z,88
2019-03-09T07:21:22.931Z,84
2019-03-09T07:22:22.876Z,84
2019-03-09T07:23:22.864Z,84
2019-03-09T07:24:22.833Z,88
2019-03-09T07:25:22.836Z,92
2019-03-09T07:26:22.826Z,92
2019-03-09T07:27:22.790Z,92
2019-03-09T07:28:22.756Z,88
2019-03-09T07:29:22.741Z,84
2019-03-09T07:30:22.715Z,84
2019-03-09T07:31:22.687Z,84
2019-03-09T07:32:22.662Z,84
2019-03-09T07:33:22.409Z,92
2019-03-09T07:34:22.632Z,92
2019-03-09T07:35:22.603Z,80
2019-03-09T07:36:22.579Z,120
2019-03-09T07:37:22.550Z,112
2019-03-09T07:38:22.550Z,116
2019-03-09T07:39:22.521Z,120
2019-03-09T07:40:22.504Z,124
2019-03-09T07:41:22.463Z,120
2019-03-09T07:42:22.465Z,124
2019-03-09T07:43:22.437Z,128
2019-03-09T07:44:22.418Z,124
2019-03-09T07:45:22.384Z,136
2019-03-09T07:46:22.376Z,164
2019-03-09T07:47:22.351Z,168
2019-03-09T07:48:22.355Z,176
2019-03-09T07:49:22.308Z,164
2019-03-09T07:50:22.274Z,144
2019-03-09T07:51:22.262Z,136
2019-03-09T07:52:22.239Z,124
2019-03-09T07:53:22.230Z,120
2019-03-09T07:54:22.194Z,124
2019-03-09T07:55:22.178Z,140
2019-03-09T07:56:22.148Z,156
2019-03-09T07:57:22.149Z,156
2019-03-09T07:58:22.111Z,152
2019-03-09T07:59:22.089Z,156
2019-03-09T08:00:22.074Z,160
2019-03-09T08:01:23.923Z,172
2019-03-09T08:02:22.026Z,184
2019-03-09T08:03:22.002Z,188
2019-03-09T08:04:21.980Z,204
2019-03-09T08:05:22.005Z,224
2019-03-09T08:06:21.954Z,228
2019-03-09T08:07:22.114Z,212
2019-03-09T08:08:21.895Z,204
2019-03-09T08:09:21.865Z,180
2019-03-09T08:10:21.881Z,188
2019-03-09T08:11:21.830Z,160
2019-03-09T08:12:23.959Z,168
2019-03-09T08:13:21.780Z,156
2019-03-09T08:14:21.784Z,172
2019-03-09T08:15:21.749Z,188
2019-03-09T08:16:21.733Z,192
2019-03-09T08:17:21.708Z,192
2019-03-09T08:18:21.682Z,180
2019-03-09T08:19:21.693Z,208
2019-03-09T08:20:21.668Z,204
2019-03-09T08:21:21.627Z,176
2019-03-09T08:22:21.618Z,176
2019-03-09T08:23:21.402Z,180
2019-03-09T08:24:21.555Z,172
2019-03-09T08:25:21.551Z,172
2019-03-09T08:26:21.546Z,172
2019-03-09T08:27:21.518Z,152
2019-03-09T08:28:23.664Z,168
2019-03-09T08:29:21.477Z,148
2019-03-09T08:30:21.462Z,152
2019-03-09T08:31:21.460Z,128
2019-03-09T08:32:21.410Z,140
2019-03-09T08:33:21.263Z,160
2019-03-09T08:34:21.385Z,176
2019-03-09T08:35:21.366Z,180
2019-03-09T08:36:21.339Z,176
2019-03-09T08:37:21.329Z,168
2019-03-09T08:38:21.256Z,172
2019-03-09T08:39:21.268Z,188
2019-03-09T08:40:21.270Z,204
2019-03-09T08:41:21.258Z,196
2019-03-09T08:42:21.177Z,200
2019-03-09T08:43:21.177Z,196
2019-03-09T08:44:21.140Z,200
2019-03-09T08:45:21.218Z,216
2019-03-09T08:46:21.138Z,220
2019-03-09T08:47:20.857Z,216
2019-03-09T08:48:21.036Z,220
2019-03-09T08:49:21.159Z,224
2019-03-09T08:50:21.051Z,228
2019-03-09T08:51:21.021Z,216
2019-03-09T08:52:20.988Z,232
2019-03-09T08:53:20.999Z,228
2019-03-09T08:54:20.974Z,248
2019-03-09T08:55:22.928Z,232
2019-03-09T08:56:21.066Z,220
2019-03-09T08:57:20.677Z,212
2019-03-09T08:58:20.866Z,240
2019-03-09T08:59:20.929Z,236
2019-03-09T09:00:20.899Z,232
2019-03-09T09:01:20.837Z,248
2019-03-09T09:02:20.821Z,264
2019-03-09T09:03:20.751Z,272
2019-03-09T09:04:20.712Z,276
2019-03-09T09:05:20.669Z,276
2019-03-09T09:06:20.674Z,272
2019-03-09T09:07:20.643Z,280
2019-03-09T09:08:20.631Z,284
2019-03-09T09:09:20.415Z,276
2019-03-09T09:10:20.128Z,256
2019-03-09T09:11:20.564Z,236
2019-03-09T09:12:20.533Z,216
2019-03-09T09:13:20.532Z,204
2019-03-09T09:14:20.483Z,212
2019-03-09T09:15:22.185Z,212
2019-03-09T09:16:20.448Z,216
2019-03-09T09:17:20.468Z,228
2019-03-09T09:18:20.427Z,232
2019-03-09T09:19:20.382Z,236
2019-03-09T09:20:20.389Z,236
2019-03-09T09:21:20.357Z,228
2019-03-09T09:22:20.325Z,212
2019-03-09T09:23:20.292Z,200
2019-03-09T09:24:20.283Z,188
2019-03-09T09:25:20.020Z,188
2019-03-09T09:26:20.236Z,184
2019-03-09T09:27:20.209Z,192
2019-03-09T09:28:20.189Z,200
2019-03-09T09:29:20.202Z,220
2019-03-09T09:30:20.413Z,252
2019-03-09T09:31:20.593Z,288
2019-03-09T09:32:20.131Z,328
2019-03-09T09:33:20.312Z,356
2019-03-09T09:34:20.164Z,380
2019-03-09T09:35:20.046Z,376
2019-03-09T09:36:20.023Z,320
2019-03-09T09:37:19.983Z,280
2019-03-09T09:38:19.972Z,264
2019-03-09T09:39:20.049Z,268
2019-03-09T09:40:20.122Z,292
2019-03-09T09:41:19.933Z,296
2019-03-09T09:42:19.878Z,268
2019-03-09T09:43:19.866Z,252
2019-03-09T09:44:19.850Z,252
2019-03-09T09:45:19.844Z,276
2019-03-09T09:46:19.561Z,292
2019-03-09T09:47:19.790Z,272
2019-03-09T09:48:19.758Z,256
2019-03-09T09:49:19.766Z,252
2019-03-09T09:50:19.724Z,244
2019-03-09T09:51:19.456Z,228
2019-03-09T09:52:19.676Z,228
2019-03-09T09:53:19.720Z,252
2019-03-09T09:54:19.632Z,260
2019-03-09T09:55:19.618Z,264
2019-03-09T09:56:19.608Z,284
2019-03-09T09:57:19.572Z,260
2019-03-09T09:58:19.557Z,276
2019-03-09T09:59:21.612Z,344
2019-03-09T10:00:19.517Z,348
2019-03-09T10:01:19.490Z,328
2019-03-09T10:02:19.468Z,316
2019-03-09T10:03:19.461Z,348
2019-03-09T10:04:19.426Z,360
2019-03-09T10:05:19.410Z,352
2019-03-09T10:06:19.395Z,344
2019-03-09T10:07:19.356Z,332
2019-03-09T10:08:19.344Z,340
2019-03-09T10:09:19.306Z,368
2019-03-09T10:10:19.051Z,380
2019-03-09T10:11:19.283Z,376
2019-03-09T10:12:19.253Z,376
2019-03-09T10:13:18.989Z,352
2019-03-09T10:14:19.201Z,336
2019-03-09T10:15:19.202Z,308
2019-03-09T10:16:19.185Z,308
2019-03-09T10:17:19.171Z,340
2019-03-09T10:18:19.126Z,356
2019-03-09T10:19:19.114Z,360
2019-03-09T10:20:19.082Z,420
2019-03-09T10:21:19.085Z,476
2019-03-09T10:22:19.032Z,484
2019-03-09T10:23:19.020Z,496
2019-03-09T10:24:18.761Z,508
2019-03-09T10:25:18.992Z,508
2019-03-09T10:26:18.982Z,524
2019-03-09T10:27:18.692Z,488
2019-03-09T10:28:18.930Z,464
2019-03-09T10:29:18.681Z,404
2019-03-09T10:30:18.901Z,356
2019-03-09T10:31:18.604Z,340
2019-03-09T10:32:18.841Z,348
2019-03-09T10:33:18.815Z,376
2019-03-09T10:34:18.550Z,420
2019-03-09T10:35:18.779Z,472
2019-03-09T10:36:18.748Z,496
2019-03-09T10:37:18.711Z,484
2019-03-09T10:38:18.708Z,460
2019-03-09T10:39:18.726Z,436
2019-03-09T10:40:18.665Z,448
2019-03-09T10:41:18.654Z,444
2019-03-09T10:42:18.621Z,444
2019-03-09T10:43:18.591Z,436
2019-03-09T10:44:18.579Z,424
2019-03-09T10:45:18.597Z,392
2019-03-09T10:46:18.540Z,356
2019-03-09T10:47:18.671Z,328
2019-03-09T10:48:18.602Z,344
2019-03-09T10:49:18.518Z,364
2019-03-09T10:50:18.452Z,380
2019-03-09T10:51:18.425Z,396
2019-03-09T10:52:18.410Z,412
2019-03-09T10:53:18.406Z,420
2019-03-09T10:54:18.350Z,396
2019-03-09T10:55:18.348Z,388
2019-03-09T10:56:18.065Z,392
2019-03-09T10:57:19.476Z,412
2019-03-09T10:58:18.278Z,428
2019-03-09T10:59:18.253Z,432
2019-03-09T11:00:18.228Z,408
2019-03-09T11:01:18.204Z,384
2019-03-09T11:02:18.197Z,364
2019-03-09T11:03:18.176Z,372
2019-03-09T11:04:27.225Z,392
2019-03-09T11:05:18.112Z,392
2019-03-09T11:06:18.108Z,408
2019-03-09T11:07:18.075Z,416
2019-03-09T11:08:18.073Z,432
2019-03-09T11:09:18.031Z,412
2019-03-09T11:10:18.038Z,400
2019-03-09T11:11:17.998Z,388
2019-03-09T11:12:17.978Z,396
2019-03-09T11:13:17.946Z,424
2019-03-09T11:14:17.931Z,412
2019-03-09T11:15:17.916Z,416
2019-03-09T11:16:17.907Z,472
2019-03-09T11:17:17.872Z,516
2019-03-09T11:18:17.871Z,532
2019-03-09T11:19:17.850Z,496
2019-03-09T11:20:17.805Z,500
2019-03-09T11:21:17.797Z,516
2019-03-09T11:22:17.755Z,500
2019-03-09T11:23:17.750Z,476
2019-03-09T11:24:17.723Z,444
2019-03-09T11:25:17.725Z,424
2019-03-09T11:26:17.684Z,388
2019-03-09T11:27:17.663Z,440
2019-03-09T11:28:17.629Z,448
2019-03-09T11:29:17.388Z,456
2019-03-09T11:30:17.597Z,452
2019-03-09T11:31:17.596Z,420
2019-03-09T11:32:17.566Z,360
2019-03-09T11:33:17.545Z,340
2019-03-09T11:34:17.517Z,352
2019-03-09T11:35:17.489Z,384
2019-03-09T11:36:17.539Z,372
2019-03-09T11:37:17.448Z,396
2019-03-09T11:38:17.443Z,412
2019-03-09T11:39:17.401Z,420
2019-03-09T11:40:17.388Z,456
2019-03-09T11:41:25.877Z,548
2019-03-09T11:42:17.353Z,592
2019-03-09T11:43:17.338Z,556
2019-03-09T11:44:17.296Z,496
2019-03-09T11:45:17.291Z,532
2019-03-09T11:46:17.273Z,584
2019-03-09T11:47:17.238Z,628
2019-03-09T11:48:17.212Z,588
2019-03-09T11:49:17.202Z,528
2019-03-09T11:50:17.179Z,512
2019-03-09T11:51:17.150Z,484
2019-03-09T11:52:29.041Z,456
2019-03-09T11:53:17.094Z,496
2019-03-09T11:54:17.165Z,612
2019-03-09T11:55:17.063Z,600
2019-03-09T11:56:17.050Z,804
2019-03-09T11:57:17.019Z,952
2019-03-09T11:58:17.011Z,868
2019-03-09T11:59:16.994Z,592
2019-03-09T12:00:16.974Z,764
2019-03-09T12:01:16.925Z,496
2019-03-09T12:02:16.924Z,740
2019-03-09T12:03:16.907Z,708
2019-03-09T12:04:16.938Z,508
2019-03-09T12:05:16.862Z,544
2019-03-09T12:06:16.824Z,512
2019-03-09T12:07:16.817Z,520
2019-03-09T12:08:16.796Z,396
2019-03-09T12:09:16.784Z,412
2019-03-09T12:10:16.773Z,604
2019-03-09T12:11:16.734Z,736
2019-03-09T12:12:16.698Z,648
2019-03-09T12:13:16.702Z,520
2019-03-09T12:14:16.679Z,588
2019-03-09T12:15:16.654Z,356
2019-03-09T12:16:16.651Z,596
2019-03-09T12:17:19.835Z,688
2019-03-09T12:18:16.584Z,484
2019-03-09T12:19:16.563Z,580
2019-03-09T12:20:16.542Z,520
2019-03-09T12:21:16.515Z,488
2019-03-09T12:22:16.505Z,472
2019-03-09T12:23:16.477Z,364
2019-03-09T12:24:24.816Z,528
2019-03-09T12:25:16.420Z,392
2019-03-09T12:26:16.442Z,372
2019-03-09T12:27:16.392Z,476
2019-03-09T12:28:16.373Z,488
2019-03-09T12:29:16.349Z,408
2019-03-09T12:30:16.353Z,468
2019-03-09T12:31:16.304Z,480
2019-03-09T12:32:16.328Z,488
2019-03-09T12:33:16.262Z,632
2019-03-09T12:34:16.273Z,476
2019-03-09T12:35:16.244Z,688
2019-03-09T12:36:16.225Z,804
2019-03-09T12:37:16.207Z,364
2019-03-09T12:38:16.175Z,404
2019-03-09T12:39:16.194Z,568
2019-03-09T12:40:16.122Z,820
2019-03-09T12:41:16.202Z,644
2019-03-09T12:42:16.065Z,384
2019-03-09T12:43:16.057Z,724
2019-03-09T12:44:16.029Z,624
2019-03-09T12:45:16.038Z,348
2019-03-09T12:46:15.742Z,412
2019-03-09T12:47:15.968Z,472
2019-03-09T12:48:15.942Z,452
2019-03-09T12:49:15.941Z,416
2019-03-09T12:50:15.916Z,360
2019-03-09T12:51:15.887Z,272
2019-03-09T12:52:15.861Z,260
2019-03-09T12:53:16.700Z,308
2019-03-09T12:54:15.847Z,260
2019-03-09T12:55:15.796Z,212
2019-03-09T12:56:15.780Z,232
2019-03-09T12:57:15.746Z,192
2019-03-09T12:58:15.745Z,224
2019-03-09T12:59:15.735Z,244
2019-03-09T13:00:15.713Z,248
2019-03-09T13:01:15.689Z,900
2019-03-09T13:02:15.663Z,692
2019-03-09T13:03:15.638Z,892
2019-03-09T13:04:15.619Z,528
2019-03-09T13:05:15.592Z,500
2019-03-09T13:06:15.573Z,432
2019-03-09T13:07:15.552Z,408
2019-03-09T13:08:15.538Z,412
2019-03-09T13:09:15.508Z,316
2019-03-09T13:10:15.505Z,900
2019-03-09T13:11:15.465Z,284
2019-03-09T13:12:16.009Z,444
2019-03-09T13:13:15.441Z,372
2019-03-09T13:14:15.419Z,300
2019-03-09T13:15:15.396Z,196
2019-03-09T13:16:15.356Z,280
2019-03-09T13:17:15.351Z,368
2019-03-09T13:18:15.348Z,412
2019-03-09T13:19:15.320Z,468
2019-03-09T13:20:15.289Z,400
2019-03-09T13:21:15.272Z,408
2019-03-09T13:22:15.233Z,248
2019-03-09T13:23:15.219Z,180
2019-03-09T13:24:15.213Z,404
2019-03-09T13:25:14.932Z,268
2019-03-09T13:26:15.161Z,324
2019-03-09T13:27:15.125Z,408
2019-03-09T13:28:15.106Z,440
2019-03-09T13:29:15.084Z,452
2019-03-09T13:30:15.075Z,312
2019-03-09T13:31:14.801Z,212
2019-03-09T13:32:15.034Z,156
2019-03-09T13:33:14.994Z,132
2019-03-09T13:34:15.056Z,132
2019-03-09T13:35:14.763Z,196
2019-03-09T13:36:14.708Z,268
2019-03-09T13:37:14.942Z,216
2019-03-09T13:38:14.922Z,224
2019-03-09T13:39:14.880Z,244
2019-03-09T13:40:14.868Z,336
2019-03-09T13:41:14.394Z,264
2019-03-09T13:42:14.865Z,320
2019-03-09T13:43:14.795Z,284
2019-03-09T13:44:14.769Z,228
2019-03-09T13:45:14.783Z,292
2019-03-09T13:46:14.719Z,324
2019-03-09T13:47:14.709Z,372
2019-03-09T13:48:14.687Z,360
2019-03-09T13:49:14.711Z,348
2019-03-09T13:50:14.715Z,368
2019-03-09T13:51:14.628Z,304
2019-03-09T13:52:14.616Z,236
2019-03-09T13:53:14.599Z,152
2019-03-09T13:54:14.556Z,128
2019-03-09T13:55:14.558Z,212
2019-03-09T13:56:14.518Z,188
2019-03-09T13:57:14.505Z,160
2019-03-09T13:58:14.489Z,112
2019-03-09T13:59:14.462Z,108
2019-03-09T14:00:14.433Z,164
2019-03-09T14:01:14.404Z,168
2019-03-09T14:02:14.401Z,164
2019-03-09T14:03:14.378Z,224
2019-03-09T14:04:14.382Z,220
2019-03-09T14:05:14.323Z,196
2019-03-09T14:06:14.323Z,180
2019-03-09T14:07:14.288Z,196
2019-03-09T14:08:14.268Z,192
2019-03-09T14:09:14.241Z,224
2019-03-09T14:10:14.250Z,228
2019-03-09T14:11:14.233Z,224
2019-03-09T14:12:14.188Z,284
2019-03-09T14:13:14.168Z,292